Time;durP1;ratioP1;P1;durP2;ratioP2;P2;SDS_P1;SDS_P2;PMS_P1;PMS_P2;Temp;Humidity;BMP_temperature;BMP_pressure;BME280_temperature;BME280_humidity;BME280_pressure;Samples;Min_cycle;Max_cycle;Signal;HPM_P1;HPM_P2
2022/03/03 00:01:53;;;;;;;105.10;39.77;;;;;;;-2.49;77.85;100425.88;4178894;28;20233;-68
2022/03/03 00:04:20;;;;;;;106.00;39.50;;;;;;;-2.49;78.39;100423.28;4184930;28;20719;-70
2022/03/03 00:06:46;;;;;;;112.80;39.03;;;;;;;-2.56;78.74;100420.91;4157569;28;20229;-72
2022/03/03 00:09:13;;;;;;;104.23;37.70;;;;;;;-2.56;78.67;100413.09;4195686;28;23953;-69
2022/03/03 00:11:40;;;;;;;97.63;36.07;;;;;;;-2.55;78.48;100413.97;4194444;28;25556;-69
2022/03/03 00:14:06;;;;;;;96.83;36.43;;;;;;;-2.56;78.73;100410.50;4174684;28;20234;-72
2022/03/03 00:16:33;;;;;;;93.87;35.87;;;;;;;-2.52;78.35;100413.84;4179552;28;20417;-71
2022/03/03 00:19:00;;;;;;;89.10;34.70;;;;;;;-2.50;78.15;100409.41;4171691;28;20360;-71
2022/03/03 00:21:26;;;;;;;91.07;34.97;;;;;;;-2.45;77.95;100402.25;4181730;28;20236;-70
2022/03/03 00:23:53;;;;;;;89.63;34.97;;;;;;;-2.23;76.97;100396.97;4194837;28;20238;-71
2022/03/03 00:26:19;;;;;;;97.60;35.43;;;;;;;-2.20;76.54;100388.19;4194820;28;20750;-71
2022/03/03 00:28:46;;;;;;;92.20;35.50;;;;;;;-2.08;76.39;100386.81;4179659;28;22014;-72
2022/03/03 00:31:13;;;;;;;98.57;35.97;;;;;;;-2.25;76.61;100372.75;4178653;28;20245;-71
2022/03/03 00:33:39;;;;;;;95.37;35.20;;;;;;;-2.41;77.28;100363.88;4178914;28;20277;-69
2022/03/03 00:36:06;;;;;;;97.03;34.27;;;;;;;-2.43;77.68;100370.94;4179751;28;22518;-70
2022/03/03 00:38:32;;;;;;;89.03;34.50;;;;;;;-2.62;78.41;100366.47;4175407;28;21652;-70
2022/03/03 00:40:59;;;;;;;95.87;35.47;;;;;;;-2.51;78.54;100370.41;4204304;28;20937;-71
2022/03/03 00:43:26;;;;;;;90.27;36.60;;;;;;;-2.42;77.96;100365.63;4177479;28;20480;-70
2022/03/03 00:45:52;;;;;;;101.43;35.47;;;;;;;-2.51;78.28;100363.41;4193402;28;20253;-70
2022/03/03 00:48:19;;;;;;;90.27;34.90;;;;;;;-2.50;78.68;100362.53;4188594;28;20316;-72
2022/03/03 00:50:46;;;;;;;89.90;34.50;;;;;;;-2.48;78.34;100362.44;4199207;28;20238;-69
2022/03/03 00:53:13;;;;;;;92.53;35.30;;;;;;;-2.58;78.54;100360.22;4183188;28;20244;-71
2022/03/03 00:55:39;;;;;;;93.87;34.73;;;;;;;-2.64;79.11;100347.47;4190341;28;20652;-70
2022/03/03 00:58:06;;;;;;;86.53;35.20;;;;;;;-2.60;79.11;100346.44;4194988;28;20322;-71
2022/03/03 01:00:32;;;;;;;93.33;35.93;;;;;;;-2.58;79.58;100344.59;4165997;28;20315;-68
2022/03/03 01:02:59;;;;;;;92.33;35.70;;;;;;;-2.70;79.84;100352.06;4195609;28;20291;-69
2022/03/03 01:05:26;;;;;;;91.17;34.77;;;;;;;-2.63;79.75;100346.53;4185683;28;20681;-69
2022/03/03 01:07:53;;;;;;;94.83;37.17;;;;;;;-2.59;79.81;100348.13;4202261;28;20239;-71
2022/03/03 01:10:19;;;;;;;110.10;38.43;;;;;;;-2.78;81.06;100341.97;4196343;28;21533;-70
2022/03/03 01:12:46;;;;;;;120.33;38.63;;;;;;;-3.24;83.99;100349.84;4188964;28;20234;-70
2022/03/03 01:15:13;;;;;;;102.60;38.97;;;;;;;-3.25;84.75;100342.13;4185510;28;20367;-71
2022/03/03 01:17:39;;;;;;;103.53;38.17;;;;;;;-3.30;85.20;100342.28;4192958;28;20293;-69
2022/03/03 01:20:07;;;;;;;99.70;36.13;;;;;;;-3.49;86.12;100341.28;4191978;28;23062;-70
2022/03/03 01:22:34;;;;;;;101.37;37.80;;;;;;;-3.60;86.92;100344.31;4201120;28;20233;-71
2022/03/03 01:25:00;;;;;;;95.77;36.83;;;;;;;-3.62;87.06;100346.13;4203482;28;20628;-70
2022/03/03 01:27:28;;;;;;;97.33;35.90;;;;;;;-3.61;86.81;100351.28;4192381;28;20240;-71
2022/03/03 01:29:54;;;;;;;91.13;34.50;;;;;;;-3.48;86.61;100341.25;4196691;28;20239;-69
2022/03/03 01:32:21;;;;;;;100.77;36.70;;;;;;;-3.65;86.53;100344.47;4199938;28;20220;-70
2022/03/03 01:34:47;;;;;;;93.03;37.30;;;;;;;-3.65;86.31;100341.88;4203813;28;22636;-69
2022/03/03 01:37:14;;;;;;;97.77;37.73;;;;;;;-3.45;85.94;100338.50;4209692;28;20244;-71
2022/03/03 01:39:40;;;;;;;103.50;37.47;;;;;;;-3.46;86.17;100334.22;4203302;28;20364;-71
2022/03/03 01:42:07;;;;;;;102.50;37.00;;;;;;;-3.46;85.42;100334.22;4210647;28;20662;-70
2022/03/03 01:44:34;;;;;;;89.50;35.97;;;;;;;-3.46;85.76;100329.03;4185229;28;20312;-70
2022/03/03 01:47:00;;;;;;;99.37;37.17;;;;;;;-3.52;85.64;100331.84;4210465;28;20323;-70
2022/03/03 01:49:27;;;;;;;102.27;39.80;;;;;;;-3.52;86.01;100339.66;4194684;28;20323;-69
2022/03/03 01:51:53;;;;;;;96.07;37.43;;;;;;;-3.38;85.26;100327.88;4218920;28;21245;-70
2022/03/03 01:54:20;;;;;;;94.17;37.13;;;;;;;-3.42;85.38;100325.41;4196239;28;20438;-70
2022/03/03 01:56:48;;;;;;;108.80;38.50;;;;;;;-3.43;85.60;100328.06;4203270;28;22165;-70
2022/03/03 01:59:15;;;;;;;112.37;40.57;;;;;;;-3.56;85.58;100332.03;4192925;28;20314;-70
2022/03/03 02:01:42;;;;;;;115.73;39.87;;;;;;;-3.63;85.97;100332.28;4204163;28;20245;-70
2022/03/03 02:04:09;;;;;;;114.90;39.13;;;;;;;-3.60;86.20;100331.31;4196748;28;20730;-71
2022/03/03 02:06:37;;;;;;;102.87;38.60;;;;;;;-3.62;86.09;100322.72;4184153;28;26048;-69
2022/03/03 02:09:04;;;;;;;113.20;39.93;;;;;;;-3.73;86.49;100320.50;4210200;28;20237;-70
2022/03/03 02:11:32;;;;;;;106.77;38.93;;;;;;;-3.79;87.46;100318.16;4186902;28;20237;-70
2022/03/03 02:14:01;;;;;;;116.83;41.33;;;;;;;-3.91;88.19;100309.06;4207510;28;20273;-69
2022/03/03 02:16:28;;;;;;;123.50;42.00;;;;;;;-3.95;88.60;100317.03;4211174;28;20271;-69
2022/03/03 02:18:54;;;;;;;118.13;40.43;;;;;;;-3.97;88.89;100319.66;4201883;28;22594;-71
2022/03/03 02:21:21;;;;;;;113.33;39.77;;;;;;;-4.00;89.32;100308.53;4192858;28;20309;-69
2022/03/03 02:23:48;;;;;;;106.77;39.90;;;;;;;-4.02;89.53;100308.59;4196322;28;20235;-68
2022/03/03 02:26:18;;;;;;;114.73;40.67;;;;;;;-3.96;89.45;100316.16;4205395;28;20347;-72
2022/03/03 02:28:46;;;;;;;110.83;40.23;;;;;;;-4.08;89.80;100308.81;4189344;28;21111;-69
2022/03/03 02:31:13;;;;;;;113.23;40.57;;;;;;;-3.99;90.11;100308.47;4195746;28;20232;-70
2022/03/03 02:33:40;;;;;;;104.23;39.20;;;;;;;-3.95;90.00;100307.47;4197395;28;20325;-69
2022/03/03 02:36:23;;;;;;;116.17;41.60;;;;;;;-3.94;89.91;100300.50;4184207;28;20766;-70
2022/03/03 02:38:52;;;;;;;103.17;38.07;;;;;;;-3.89;90.02;100291.63;4191235;28;21297;-70
2022/03/03 02:41:19;;;;;;;107.33;39.40;;;;;;;-3.94;89.66;100301.34;4199120;28;20235;-71
2022/03/03 02:43:45;;;;;;;112.00;40.57;;;;;;;-3.96;89.57;100287.56;4172613;28;21633;-73
2022/03/03 02:46:13;;;;;;;101.67;39.10;;;;;;;-3.75;88.91;100292.88;4185375;28;20231;-70
2022/03/03 02:48:40;;;;;;;99.80;38.80;;;;;;;-3.71;88.95;100297.06;4197382;28;20231;-71
2022/03/03 02:51:07;;;;;;;101.23;36.97;;;;;;;-3.56;88.55;100293.00;4198121;28;21012;-65
2022/03/03 02:53:34;;;;;;;113.03;39.50;;;;;;;-3.56;88.29;100286.06;4182563;28;23120;-69
2022/03/03 02:56:01;;;;;;;103.50;38.10;;;;;;;-3.65;88.03;100281.22;4168696;28;21691;-68
2022/03/03 02:58:28;;;;;;;101.57;39.63;;;;;;;-3.68;88.57;100289.13;4172253;28;20282;-69
2022/03/03 03:00:55;;;;;;;104.77;38.17;;;;;;;-3.64;88.24;100282.91;4187605;28;20241;-69
2022/03/03 03:03:22;;;;;;;96.17;37.10;;;;;;;-3.63;88.40;100287.19;4184763;28;21823;-69
2022/03/03 03:05:49;;;;;;;99.40;37.53;;;;;;;-3.82;88.88;100276.66;4199844;28;20374;-67
2022/03/03 03:08:15;;;;;;;97.73;37.40;;;;;;;-3.96;89.58;100271.97;4175443;28;20384;-70
2022/03/03 03:10:42;;;;;;;99.00;38.23;;;;;;;-3.87;90.33;100279.41;4160723;28;20378;-69
2022/03/03 03:13:12;;;;;;;97.67;38.90;;;;;;;-3.85;90.07;100272.41;4192019;28;21999;-68
2022/03/03 03:15:39;;;;;;;97.73;37.80;;;;;;;-3.88;90.43;100274.31;4211118;28;21953;-70
2022/03/03 03:18:13;;;;;;;104.13;38.57;;;;;;;-3.83;90.10;100268.00;4195614;28;25920;-68
2022/03/03 03:20:42;;;;;;;101.37;39.07;;;;;;;-3.77;90.21;100271.28;4200489;28;20243;-68
2022/03/03 03:23:10;;;;;;;107.33;38.40;;;;;;;-3.84;90.14;100265.47;4199373;28;20458;-69
2022/03/03 03:25:37;;;;;;;95.27;37.07;;;;;;;-3.76;90.08;100265.19;4210665;28;20652;-70
2022/03/03 03:28:07;;;;;;;107.67;38.10;;;;;;;-3.66;90.15;100263.91;4198330;28;20228;-69
2022/03/03 03:30:33;;;;;;;99.17;37.47;;;;;;;-3.54;90.51;100260.84;4181038;28;20233;-68
2022/03/03 03:33:00;;;;;;;96.00;38.53;;;;;;;-3.63;90.33;100263.78;4210899;28;20930;-69
2022/03/03 03:35:27;;;;;;;94.20;36.50;;;;;;;-3.72;90.83;100258.94;4201487;28;20404;-68
2022/03/03 03:37:54;;;;;;;99.83;38.30;;;;;;;-3.79;90.95;100257.50;4183267;28;20234;-70
2022/03/03 03:40:21;;;;;;;99.20;37.57;;;;;;;-3.62;91.41;100257.69;4172591;28;21545;-68
2022/03/03 03:42:48;;;;;;;106.93;39.20;;;;;;;-3.55;90.88;100251.34;4189963;28;21181;-68
2022/03/03 03:45:15;;;;;;;94.67;36.97;;;;;;;-3.59;91.24;100249.78;4189452;28;20284;-69
2022/03/03 03:47:42;;;;;;;96.23;36.60;;;;;;;-3.72;91.11;100248.53;4194621;28;20706;-69
2022/03/03 03:50:11;;;;;;;97.83;37.30;;;;;;;-3.61;91.33;100249.84;4201504;28;20241;-71
2022/03/03 03:52:38;;;;;;;96.73;37.87;;;;;;;-3.64;91.41;100243.91;4190371;28;21694;-69
2022/03/03 03:55:07;;;;;;;95.60;37.40;;;;;;;-3.63;91.04;100237.78;4217739;28;20298;-70
2022/03/03 03:57:33;;;;;;;106.70;41.00;;;;;;;-3.54;91.02;100237.44;4194386;28;21301;-69
2022/03/03 04:00:00;;;;;;;109.03;41.67;;;;;;;-3.35;90.94;100227.13;4208279;28;20398;-69
2022/03/03 04:02:26;;;;;;;118.03;41.20;;;;;;;-3.25;90.88;100225.03;4185734;28;21355;-70
2022/03/03 04:04:53;;;;;;;109.97;40.90;;;;;;;-3.21;91.53;100223.97;4199381;28;22220;-70
2022/03/03 04:07:20;;;;;;;115.00;43.37;;;;;;;-3.29;90.76;100224.28;4185260;28;20236;-69
2022/03/03 04:09:47;;;;;;;112.80;41.87;;;;;;;-3.42;91.59;100223.97;4170426;28;22096;-68
2022/03/03 04:12:14;;;;;;;107.93;41.93;;;;;;;-3.48;92.06;100232.00;4194342;28;20701;-69
2022/03/03 04:14:41;;;;;;;111.53;42.93;;;;;;;-3.44;92.36;100223.16;4188064;28;21171;-71
2022/03/03 04:17:07;;;;;;;107.67;41.90;;;;;;;-3.50;92.54;100215.59;4183051;28;20240;-71
2022/03/03 04:19:34;;;;;;;110.10;43.50;;;;;;;-3.37;92.29;100222.91;4185800;28;20316;-69
2022/03/03 04:22:01;;;;;;;111.47;42.60;;;;;;;-3.39;92.22;100220.38;4196335;28;20235;-71
2022/03/03 04:24:27;;;;;;;119.93;43.43;;;;;;;-3.37;92.51;100222.91;4188913;28;22235;-70
2022/03/03 04:26:54;;;;;;;120.30;44.80;;;;;;;-3.34;92.47;100218.44;4193654;28;20241;-69
2022/03/03 04:29:21;;;;;;;118.90;44.80;;;;;;;-3.34;91.85;100215.84;4198216;28;21828;-72
2022/03/03 04:31:51;;;;;;;113.93;42.53;;;;;;;-3.32;92.51;100218.38;4179068;28;21184;-68
2022/03/03 04:34:19;;;;;;;123.93;45.60;;;;;;;-3.26;91.90;100220.72;4190210;28;20324;-71
2022/03/03 04:36:46;;;;;;;124.87;45.77;;;;;;;-3.28;91.47;100225.13;4200144;28;20676;-70
2022/03/03 04:39:13;;;;;;;126.77;44.93;;;;;;;-3.37;91.32;100225.50;4199245;28;22241;-69
2022/03/03 04:41:40;;;;;;;127.93;46.27;;;;;;;-3.32;91.65;100221.81;4191256;28;21488;-70
2022/03/03 04:44:07;;;;;;;122.73;46.67;;;;;;;-3.34;91.44;100222.81;4199941;28;20292;-68
2022/03/03 04:46:33;;;;;;;123.43;44.57;;;;;;;-3.39;92.07;100217.78;4202916;28;21585;-70
2022/03/03 04:49:01;;;;;;;125.40;47.17;;;;;;;-3.36;91.66;100222.00;4179198;28;20225;-71
2022/03/03 04:51:29;;;;;;;124.57;45.20;;;;;;;-3.34;90.96;100217.59;4199661;28;20378;-70
2022/03/03 04:53:56;;;;;;;124.10;47.43;;;;;;;-3.34;90.95;100212.41;4186695;28;20317;-69
2022/03/03 04:56:23;;;;;;;129.20;46.87;;;;;;;-3.35;90.74;100211.53;4192654;28;20240;-70
2022/03/03 04:58:49;;;;;;;128.13;47.53;;;;;;;-3.41;91.17;100215.22;4213434;28;20230;-70
2022/03/03 05:01:16;;;;;;;135.53;46.40;;;;;;;-3.34;91.34;100205.44;4202467;28;22619;-70
2022/03/03 05:03:43;;;;;;;147.90;51.07;;;;;;;-3.32;91.36;100215.78;4189567;28;20267;-70
2022/03/03 05:06:10;;;;;;;133.70;48.83;;;;;;;-3.35;91.36;100208.09;4185220;28;25561;-69
2022/03/03 05:08:36;;;;;;;126.03;49.63;;;;;;;-3.44;91.03;100204.97;4210933;28;20238;-69
2022/03/03 05:11:03;;;;;;;138.27;49.73;;;;;;;-3.32;91.34;100197.56;4190954;28;20305;-72
2022/03/03 05:13:29;;;;;;;133.03;50.43;;;;;;;-3.40;91.15;100196.09;4197663;28;22271;-69
2022/03/03 05:15:56;;;;;;;134.50;50.13;;;;;;;-3.33;91.22;100193.25;4183716;28;20244;-70
2022/03/03 05:18:23;;;;;;;141.90;51.43;;;;;;;-3.36;90.94;100199.44;4183361;28;21827;-70
2022/03/03 05:20:49;;;;;;;135.67;50.50;;;;;;;-3.36;91.36;100199.44;4180866;28;20249;-69
2022/03/03 05:23:22;;;;;;;139.93;51.93;;;;;;;-3.37;91.32;100197.75;4189413;28;20231;-69
2022/03/03 05:25:48;;;;;;;127.43;49.80;;;;;;;-3.38;91.76;100200.41;4189932;28;20665;-68
2022/03/03 05:28:15;;;;;;;153.60;53.40;;;;;;;-3.42;91.29;100184.94;4187617;28;20292;-70
2022/03/03 05:30:42;;;;;;;160.67;54.77;;;;;;;-3.54;91.75;100190.63;4189565;28;21873;-70
2022/03/03 05:33:09;;;;;;;143.17;50.30;;;;;;;-3.51;92.22;100187.03;4191715;28;20247;-74
2022/03/03 05:35:35;;;;;;;141.30;51.57;;;;;;;-3.53;92.37;100187.13;4199487;28;20248;-68
2022/03/03 05:38:02;;;;;;;146.67;54.47;;;;;;;-3.43;92.47;100190.19;4192009;28;20234;-72
2022/03/03 05:40:30;;;;;;;147.40;55.50;;;;;;;-3.37;91.81;100181.28;4190566;28;20245;-72
2022/03/03 05:42:57;;;;;;;156.43;53.73;;;;;;;-3.31;91.79;100191.44;4196152;28;20231;-72
2022/03/03 05:45:24;;;;;;;141.67;53.27;;;;;;;-3.16;91.93;100192.56;4183870;28;20313;-71
2022/03/03 05:47:51;;;;;;;140.60;54.27;;;;;;;-3.08;91.47;100183.53;4221836;28;20625;-70
2022/03/03 05:50:17;;;;;;;157.33;56.07;;;;;;;-3.32;91.70;100184.56;4214410;28;25871;-72
2022/03/03 05:52:44;;;;;;;160.77;57.23;;;;;;;-3.20;91.94;100189.25;4187638;28;20255;-72
2022/03/03 05:55:10;;;;;;;159.47;58.40;;;;;;;-3.20;91.87;100190.09;4190234;28;20239;-70
2022/03/03 05:57:44;;;;;;;162.63;57.07;;;;;;;-3.21;91.86;100185.81;4187236;28;20442;-69
2022/03/03 06:00:15;;;;;;;154.03;56.07;;;;;;;-3.23;91.91;100174.63;4191738;28;20244;-69
2022/03/03 06:02:51;;;;;;;157.97;57.33;;;;;;;-3.25;92.92;100180.78;4197018;28;20233;-68
2022/03/03 06:05:19;;;;;;;163.30;61.30;;;;;;;-3.24;92.15;100179.88;4187073;28;20371;-67
2022/03/03 06:07:51;;;;;;;177.03;62.50;;;;;;;-3.30;93.07;100178.38;4191697;28;20299;-68
2022/03/03 06:10:22;;;;;;;163.70;59.07;;;;;;;-3.25;92.88;100183.41;4197060;28;21664;-70
2022/03/03 06:12:53;;;;;;;168.93;59.70;;;;;;;-3.20;93.17;100179.69;4176098;28;20369;-67
2022/03/03 06:15:22;;;;;;;170.93;61.40;;;;;;;-3.17;93.13;100183.06;4182907;28;20312;-70
2022/03/03 06:17:49;;;;;;;157.00;58.13;;;;;;;-2.96;92.43;100187.38;4160737;28;20238;-70
2022/03/03 06:20:18;;;;;;;159.90;60.00;;;;;;;-2.82;92.16;100190.22;4166777;28;20768;-69
2022/03/03 06:22:45;;;;;;;167.90;58.83;;;;;;;-2.86;91.04;100193.84;4184804;28;20299;-69
2022/03/03 06:25:12;;;;;;;154.40;57.73;;;;;;;-2.83;91.16;100190.31;4173692;28;20332;-69
2022/03/03 06:27:39;;;;;;;165.03;59.33;;;;;;;-2.86;90.92;100188.66;4185365;28;20293;-69
2022/03/03 06:30:06;;;;;;;156.37;57.00;;;;;;;-2.91;91.64;100190.59;4193577;28;20261;-70
2022/03/03 06:32:33;;;;;;;151.80;54.73;;;;;;;-2.76;91.07;100191.72;4177743;28;20695;-70
2022/03/03 06:35:01;;;;;;;152.70;56.70;;;;;;;-2.69;91.19;100190.56;4193643;28;20248;-70
2022/03/03 06:37:28;;;;;;;148.63;56.87;;;;;;;-2.49;90.47;100192.25;4186983;28;20519;-68
2022/03/03 06:39:54;;;;;;;156.03;56.60;;;;;;;-2.37;89.93;100196.91;4188126;28;20451;-69
2022/03/03 06:42:21;;;;;;;156.87;59.07;;;;;;;-2.28;89.23;100198.28;4189684;28;20235;-65
2022/03/03 06:44:52;;;;;;;157.03;57.13;;;;;;;-2.28;88.89;100205.25;4181430;28;20234;-68
2022/03/03 06:47:19;;;;;;;160.17;57.03;;;;;;;-2.28;89.04;100205.25;4191617;28;20237;-69
2022/03/03 06:49:46;;;;;;;144.23;56.33;;;;;;;-2.29;89.19;100203.56;4172730;28;20311;-68
2022/03/03 06:52:15;;;;;;;154.17;55.17;;;;;;;-2.11;88.86;100205.31;4169851;28;20377;-67
2022/03/03 06:54:46;;;;;;;140.00;54.83;;;;;;;-2.01;88.57;100200.56;4165056;28;20312;-68
2022/03/03 06:57:16;;;;;;;146.47;54.83;;;;;;;-1.86;87.80;100199.81;4170408;28;20229;-69
2022/03/03 06:59:43;;;;;;;139.50;54.27;;;;;;;-1.46;87.05;100203.13;4191462;28;22098;-70
2022/03/03 07:02:09;;;;;;;142.63;54.07;;;;;;;-1.50;85.01;100204.19;4217684;28;21355;-74
2022/03/03 07:04:39;;;;;;;140.93;51.97;;;;;;;-1.63;84.15;100200.50;4201277;28;20243;-72
2022/03/03 07:07:06;;;;;;;139.73;52.60;;;;;;;-1.63;84.60;100201.34;4263740;28;21470;-71
2022/03/03 07:09:34;;;;;;;148.13;54.27;;;;;;;-1.25;83.63;100205.63;4224779;28;21590;-72
2022/03/03 07:12:01;;;;;;;137.60;53.57;;;;;;;-0.90;82.53;100202.09;4217742;28;20232;-77
2022/03/03 07:14:28;;;;;;;142.60;54.10;;;;;;;-0.97;82.32;100202.47;4204616;28;20346;-71
2022/03/03 07:17:00;;;;;;;137.60;52.13;;;;;;;-1.07;81.78;100204.72;4235271;28;20300;-71
2022/03/03 07:19:39;;;;;;;135.80;50.77;;;;;;;-1.05;81.60;100210.72;4187683;28;21245;-73
2022/03/03 07:22:17;;;;;;;137.67;51.97;;;;;;;-0.90;80.53;100204.69;4184009;28;21231;-70
2022/03/03 07:25:06;;;;;;;129.00;51.80;;;;;;;-0.85;81.24;100197.47;4249294;28;22025;-73
2022/03/03 07:27:34;;;;;;;141.77;52.17;;;;;;;-0.71;80.44;100194.16;4226105;28;20244;-76
2022/03/03 07:30:06;;;;;;;151.27;55.67;;;;;;;-0.72;80.80;100186.41;4212161;28;21439;-67
2022/03/03 07:32:35;;;;;;;142.13;53.67;;;;;;;-0.85;80.82;100194.03;4197994;28;20315;-71
2022/03/03 07:35:09;;;;;;;136.73;53.67;;;;;;;-1.09;81.83;100194.34;4221389;28;20470;-68
2022/03/03 07:38:02;;;;;;;134.00;53.23;;;;;;;-0.53;80.75;100207.19;4185404;28;23176;-70
2022/03/03 07:40:31;;;;;;;129.87;49.80;;;;;;;-0.16;78.93;100208.72;4172050;28;21859;-69
2022/03/03 07:42:58;;;;;;;132.40;50.30;;;;;;;0.11;77.71;100198.50;4186802;28;20327;-69
2022/03/03 07:45:26;;;;;;;137.17;52.50;;;;;;;0.47;76.02;100204.41;4190771;28;25506;-67
2022/03/03 07:47:55;;;;;;;123.23;47.67;;;;;;;0.76;73.62;100211.44;4214882;28;20239;-70
2022/03/03 07:50:22;;;;;;;117.20;49.10;;;;;;;1.42;70.83;100210.19;4206951;28;21725;-65
2022/03/03 07:52:51;;;;;;;118.00;47.30;;;;;;;2.90;68.07;100222.78;4193029;28;20302;-68
2022/03/03 07:55:18;;;;;;;109.70;45.23;;;;;;;5.06;57.97;100225.16;4215809;28;22348;-68
2022/03/03 07:58:02;;;;;;;110.33;44.43;;;;;;;7.01;52.87;100238.06;4203903;28;20229;-67
2022/03/03 08:00:31;;;;;;;99.60;41.53;;;;;;;9.77;44.13;100244.66;4209704;28;20228;-64
2022/03/03 08:03:02;;;;;;;91.73;40.03;;;;;;;11.59;36.79;100262.44;4259791;28;20228;-67
2022/03/03 08:05:29;;;;;;;101.57;41.00;;;;;;;11.87;33.16;100254.25;4216625;28;23108;-67
2022/03/03 08:07:58;;;;;;;78.77;35.47;;;;;;;12.25;32.90;100255.66;4215742;28;22338;-68
2022/03/03 08:10:26;;;;;;;97.00;37.90;;;;;;;12.15;31.17;100253.13;4194181;28;21255;-65
2022/03/03 08:12:58;;;;;;;77.77;37.57;;;;;;;11.94;32.05;100241.97;4194566;28;21947;-69
2022/03/03 08:15:25;;;;;;;82.40;38.37;;;;;;;10.17;33.25;100237.38;4194906;28;20363;-67
2022/03/03 08:17:53;;;;;;;85.20;40.17;;;;;;;8.31;36.49;100218.13;4235046;28;21786;-66
2022/03/03 08:20:22;;;;;;;79.07;37.13;;;;;;;10.27;34.62;100232.84;4230626;28;20275;-67
2022/03/03 08:22:49;;;;;;;81.07;37.33;;;;;;;13.40;28.88;100250.56;4227979;28;20287;-70
2022/03/03 08:25:17;;;;;;;81.10;35.63;;;;;;;15.23;24.88;100251.34;4208032;28;21767;-68
2022/03/03 08:27:44;;;;;;;72.67;36.27;;;;;;;15.84;24.00;100257.50;4242225;28;22106;-68
2022/03/03 08:30:12;;;;;;;73.50;34.27;;;;;;;15.59;23.69;100255.03;4228160;28;20235;-67
2022/03/03 08:32:41;;;;;;;67.20;33.40;;;;;;;16.40;21.91;100251.66;4224819;28;22127;-68
2022/03/03 08:35:17;;;;;;;71.10;34.63;;;;;;;18.22;20.23;100248.56;4204557;28;20244;-68
2022/03/03 08:37:58;;;;;;;75.40;35.67;;;;;;;19.59;18.14;100258.22;4224429;28;20221;-67
2022/03/03 08:40:25;;;;;;;69.10;34.20;;;;;;;19.84;17.60;100260.31;4246663;28;22331;-70
2022/03/03 08:42:56;;;;;;;61.00;30.73;;;;;;;20.33;16.07;100258.94;4252918;28;22908;-70
2022/03/03 08:45:24;;;;;;;64.73;32.10;;;;;;;20.92;16.13;100257.03;4245486;28;20395;-66
2022/03/03 08:48:03;;;;;;;64.27;31.53;;;;;;;20.48;15.83;100258.66;4239263;28;22754;-69
2022/03/03 08:50:32;;;;;;;59.63;31.50;;;;;;;21.48;15.36;100254.34;4198007;28;20250;-66
2022/03/03 08:53:01;;;;;;;65.10;33.33;;;;;;;22.67;14.82;100259.56;4234714;28;20831;-67
2022/03/03 08:55:29;;;;;;;97.03;45.57;;;;;;;19.94;17.59;100241.78;4242659;28;20240;-68
2022/03/03 08:57:58;;;;;;;84.33;44.60;;;;;;;19.73;18.45;100235.59;4247906;28;20253;-75
2022/03/03 09:00:25;;;;;;;94.67;48.10;;;;;;;17.57;20.95;100216.44;4205463;28;20249;-70
2022/03/03 09:02:53;;;;;;;86.50;43.80;;;;;;;19.08;19.64;100230.00;4247767;28;20323;-69
2022/03/03 09:05:21;;;;;;;84.17;45.53;;;;;;;18.47;20.02;100220.06;4244023;28;20243;-69
2022/03/03 09:07:48;;;;;;;93.53;48.33;;;;;;;16.23;22.36;100208.06;4173658;28;20228;-68
2022/03/03 09:10:16;;;;;;;97.90;46.87;;;;;;;15.22;24.01;100206.75;4210064;28;20240;-70
2022/03/03 09:12:43;;;;;;;91.10;44.87;;;;;;;14.03;25.99;100198.13;4227697;28;20618;-73
2022/03/03 09:15:10;;;;;;;88.83;44.73;;;;;;;12.66;28.63;100189.88;4286168;28;20331;-73
2022/03/03 09:17:38;;;;;;;91.30;43.53;;;;;;;9.64;32.78;100181.19;4259849;28;20237;-70
2022/03/03 09:20:07;;;;;;;98.93;45.93;;;;;;;7.40;37.89;100164.22;4239278;28;20728;-72
2022/03/03 09:22:34;;;;;;;88.30;41.87;;;;;;;7.78;37.12;100160.06;4261176;28;20396;-69
2022/03/03 09:25:01;;;;;;;108.63;44.23;;;;;;;8.38;36.98;100163.56;4327672;28;25160;-72
2022/03/03 09:27:28;;;;;;;91.50;41.50;;;;;;;8.40;35.56;100164.28;4231322;28;21258;-69
2022/03/03 09:29:55;;;;;;;83.07;38.37;;;;;;;8.46;34.76;100157.59;4286103;28;20405;-67
2022/03/03 09:32:22;;;;;;;92.33;40.63;;;;;;;7.17;37.51;100156.41;4216311;28;21633;-69
2022/03/03 09:34:49;;;;;;;92.77;40.83;;;;;;;6.98;39.47;100148.38;4243636;28;20762;-75
2022/03/03 09:37:16;;;;;;;85.10;40.53;;;;;;;7.02;39.33;100151.59;4224094;28;21311;-66
2022/03/03 09:39:47;;;;;;;101.07;45.07;;;;;;;7.01;39.53;100156.03;4241051;28;22968;-66
2022/03/03 09:42:14;;;;;;;98.87;42.83;;;;;;;6.42;41.99;100153.91;4247390;28;20730;-66
2022/03/03 09:44:41;;;;;;;96.90;41.93;;;;;;;6.87;40.66;100140.50;4282242;28;20295;-65
2022/03/03 09:47:11;;;;;;;94.83;39.80;;;;;;;6.89;40.42;100149.13;4243935;28;20325;-68
2022/03/03 09:49:39;;;;;;;79.40;33.30;;;;;;;7.39;38.19;100151.94;4260925;28;21516;-66
2022/03/03 09:52:16;;;;;;;75.00;31.30;;;;;;;7.48;36.10;100152.97;4257541;28;20750;-65
2022/03/03 09:54:44;;;;;;;75.07;33.07;;;;;;;7.90;35.80;100159.00;4288646;28;22091;-67
2022/03/03 09:57:11;;;;;;;58.97;26.07;;;;;;;7.69;32.76;100158.22;4265710;28;20237;-69
2022/03/03 09:59:37;;;;;;;57.20;24.50;;;;;;;7.51;33.14;100155.34;4278895;28;20275;-65
2022/03/03 10:02:06;;;;;;;62.97;24.20;;;;;;;7.07;33.98;100152.88;4259060;28;21188;-67
2022/03/03 10:04:34;;;;;;;63.77;23.97;;;;;;;7.61;33.31;100151.78;4290089;28;20349;-66
2022/03/03 10:07:07;;;;;;;55.20;22.47;;;;;;;6.88;33.58;100158.03;4247453;28;25375;-68
2022/03/03 10:09:59;;;;;;;54.93;20.93;;;;;;;6.45;33.92;100149.19;4270760;28;20333;-66
2022/03/03 10:12:40;;;;;;;45.70;19.23;;;;;;;6.83;33.18;100144.34;4306101;28;20240;-67
2022/03/03 10:15:12;;;;;;;50.57;21.13;;;;;;;6.37;34.63;100158.72;4278867;28;20322;-65
2022/03/03 10:17:39;;;;;;;53.90;21.40;;;;;;;5.75;35.73;100147.75;4247981;28;20287;-67
2022/03/03 10:20:07;;;;;;;47.50;19.53;;;;;;;5.76;35.78;100141.53;4258603;28;20303;-68
2022/03/03 10:22:43;;;;;;;49.90;20.67;;;;;;;6.19;35.41;100132.81;4238769;28;23281;-66
2022/03/03 10:25:26;;;;;;;45.40;19.93;;;;;;;6.78;34.36;100142.09;4226120;28;21827;-66
2022/03/03 10:27:53;;;;;;;44.17;20.13;;;;;;;6.78;34.08;100142.09;4225563;28;20327;-66
2022/03/03 10:30:20;;;;;;;43.27;18.20;;;;;;;6.04;35.06;100144.63;4252555;28;20298;-66
2022/03/03 10:32:50;;;;;;;49.20;18.23;;;;;;;6.48;34.51;100141.00;4275960;28;21254;-65
2022/03/03 10:35:18;;;;;;;41.00;18.33;;;;;;;6.56;34.72;100150.97;4262614;28;20245;-68
2022/03/03 10:37:46;;;;;;;46.10;18.83;;;;;;;6.92;33.32;100148.88;4241584;28;20227;-66
2022/03/03 10:40:15;;;;;;;42.30;19.87;;;;;;;6.90;33.65;100140.22;4245792;28;20247;-66
2022/03/03 10:42:44;;;;;;;43.50;19.30;;;;;;;6.34;34.21;100139.53;4274118;28;20535;-67
2022/03/03 10:45:17;;;;;;;43.77;19.00;;;;;;;6.17;35.64;100137.38;4260455;28;20224;-67
2022/03/03 10:47:46;;;;;;;47.23;19.43;;;;;;;6.27;35.42;100138.31;4239203;28;20595;-65
2022/03/03 10:50:15;;;;;;;38.33;19.00;;;;;;;6.73;34.21;100133.72;4228555;28;20284;-66
2022/03/03 10:52:44;;;;;;;40.53;17.60;;;;;;;6.57;34.85;100150.00;4225376;28;20227;-68
2022/03/03 10:55:16;;;;;;;36.60;17.43;;;;;;;6.54;34.57;100142.31;4243686;28;20230;-67
2022/03/03 10:57:58;;;;;;;42.27;17.63;;;;;;;6.48;35.30;100141.00;4238134;28;20305;-65
2022/03/03 11:00:35;;;;;;;38.33;18.20;;;;;;;5.80;37.00;100131.53;4263080;28;20316;-65
2022/03/03 11:03:04;;;;;;;42.10;18.73;;;;;;;6.01;37.73;100140.41;4304632;28;20288;-67
2022/03/03 11:05:32;;;;;;;41.33;19.03;;;;;;;6.11;39.15;100143.16;4270602;28;21893;-66
2022/03/03 11:07:59;;;;;;;41.77;19.53;;;;;;;6.17;39.18;100140.03;4265494;28;20906;-67
2022/03/03 11:10:29;;;;;;;46.23;19.50;;;;;;;5.79;41.30;100133.34;4270071;28;20232;-68
2022/03/03 11:12:57;;;;;;;41.37;20.00;;;;;;;5.82;41.06;100127.81;4239988;28;22042;-70